sensor_id;sensor_type;location;lat;lon;timestamp;temperature;humidity
8715;DHT22;4394;51.208;8.904;2023-03-23T00:00:06;12.40;99.90
8715;DHT22;4394;51.208;8.904;2023-03-23T00:02:54;12.40;99.90
8715;DHT22;4394;51.208;8.904;2023-03-23T00:05:42;12.40;99.90
8715;DHT22;4394;51.208;8.904;2023-03-23T00:08:37;12.40;99.90
8715;DHT22;4394;51.208;8.904;2023-03-23T00:11:31;12.40;99.90
8715;DHT22;4394;51.208;8.904;2023-03-23T00:14:19;12.40;99.90
8715;DHT22;4394;51.208;8.904;2023-03-23T00:17:08;12.40;99.90
8715;DHT22;4394;51.208;8.904;2023-03-23T00:19:56;12.30;99.90
8715;DHT22;4394;51.208;8.904;2023-03-23T00:22:44;12.30;99.90
8715;DHT22;4394;51.208;8.904;2023-03-23T00:25:31;12.30;99.90
8715;DHT22;4394;51.208;8.904;2023-03-23T00:28:19;12.30;99.90
8715;DHT22;4394;51.208;8.904;2023-03-23T00:31:10;12.30;99.90
8715;DHT22;4394;51.208;8.904;2023-03-23T00:33:58;12.20;99.90
8715;DHT22;4394;51.208;8.904;2023-03-23T00:36:47;12.20;99.90
8715;DHT22;4394;51.208;8.904;2023-03-23T00:39:37;12.30;99.90
8715;DHT22;4394;51.208;8.904;2023-03-23T00:42:24;12.20;99.90
8715;DHT22;4394;51.208;8.904;2023-03-23T00:45:11;12.20;99.90
8715;DHT22;4394;51.208;8.904;2023-03-23T00:47:59;12.20;99.90
8715;DHT22;4394;51.208;8.904;2023-03-23T00:50:47;12.20;99.90
8715;DHT22;4394;51.208;8.904;2023-03-23T00:53:34;12.10;99.90
8715;DHT22;4394;51.208;8.904;2023-03-23T00:56:22;12.10;99.90
8715;DHT22;4394;51.208;8.904;2023-03-23T00:59:12;12.10;99.90
8715;DHT22;4394;51.208;8.904;2023-03-23T01:01:59;12.10;99.90
8715;DHT22;4394;51.208;8.904;2023-03-23T01:04:45;12.00;99.90
8715;DHT22;4394;51.208;8.904;2023-03-23T01:07:37;12.00;99.90
8715;DHT22;4394;51.208;8.904;2023-03-23T01:10:25;12.00;99.90
8715;DHT22;4394;51.208;8.904;2023-03-23T01:13:14;11.90;99.90
8715;DHT22;4394;51.208;8.904;2023-03-23T01:16:02;11.90;99.90
8715;DHT22;4394;51.208;8.904;2023-03-23T01:18:49;11.90;99.90
8715;DHT22;4394;51.208;8.904;2023-03-23T01:21:36;11.90;99.90
8715;DHT22;4394;51.208;8.904;2023-03-23T01:24:23;11.80;99.90
8715;DHT22;4394;51.208;8.904;2023-03-23T01:27:10;11.80;99.90
8715;DHT22;4394;51.208;8.904;2023-03-23T01:29:58;11.80;99.90
8715;DHT22;4394;51.208;8.904;2023-03-23T01:32:45;11.90;99.90
8715;DHT22;4394;51.208;8.904;2023-03-23T01:35:32;11.80;99.90
8715;DHT22;4394;51.208;8.904;2023-03-23T01:38:19;11.80;99.90
8715;DHT22;4394;51.208;8.904;2023-03-23T01:41:06;11.80;99.90
8715;DHT22;4394;51.208;8.904;2023-03-23T01:43:56;11.80;99.90
8715;DHT22;4394;51.208;8.904;2023-03-23T01:46:45;11.70;99.90
8715;DHT22;4394;51.208;8.904;2023-03-23T01:49:33;11.70;99.90
8715;DHT22;4394;51.208;8.904;2023-03-23T01:52:24;11.80;99.90
8715;DHT22;4394;51.208;8.904;2023-03-23T01:55:15;11.70;99.90
8715;DHT22;4394;51.208;8.904;2023-03-23T01:58:02;11.60;99.90
8715;DHT22;4394;51.208;8.904;2023-03-23T02:00:50;11.60;99.90
8715;DHT22;4394;51.208;8.904;2023-03-23T02:03:41;11.70;99.90
8715;DHT22;4394;51.208;8.904;2023-03-23T02:06:28;11.70;99.90
8715;DHT22;4394;51.208;8.904;2023-03-23T02:09:15;11.70;99.90
8715;DHT22;4394;51.208;8.904;2023-03-23T02:12:03;11.70;99.90
8715;DHT22;4394;51.208;8.904;2023-03-23T02:14:50;11.70;99.90
8715;DHT22;4394;51.208;8.904;2023-03-23T02:17:41;11.70;99.90
8715;DHT22;4394;51.208;8.904;2023-03-23T02:20:43;11.70;99.90
8715;DHT22;4394;51.208;8.904;2023-03-23T02:23:49;11.70;99.90
8715;DHT22;4394;51.208;8.904;2023-03-23T02:26:47;11.70;99.90
8715;DHT22;4394;51.208;8.904;2023-03-23T02:30:06;11.70;99.90
8715;DHT22;4394;51.208;8.904;2023-03-23T02:33:28;11.70;99.90
8715;DHT22;4394;51.208;8.904;2023-03-23T02:36:21;11.70;99.90
8715;DHT22;4394;51.208;8.904;2023-03-23T02:39:13;11.60;99.90
8715;DHT22;4394;51.208;8.904;2023-03-23T02:42:05;11.60;99.90
8715;DHT22;4394;51.208;8.904;2023-03-23T02:44:53;11.70;99.90
8715;DHT22;4394;51.208;8.904;2023-03-23T02:47:42;11.70;99.90
8715;DHT22;4394;51.208;8.904;2023-03-23T02:50:31;11.70;99.90
8715;DHT22;4394;51.208;8.904;2023-03-23T02:53:22;11.70;99.90
8715;DHT22;4394;51.208;8.904;2023-03-23T02:56:10;11.70;99.90
8715;DHT22;4394;51.208;8.904;2023-03-23T02:58:59;11.60;99.90
8715;DHT22;4394;51.208;8.904;2023-03-23T03:01:57;11.60;99.90
8715;DHT22;4394;51.208;8.904;2023-03-23T03:04:48;11.60;99.90
8715;DHT22;4394;51.208;8.904;2023-03-23T03:07:49;11.50;99.90
8715;DHT22;4394;51.208;8.904;2023-03-23T03:10:43;11.50;99.90
8715;DHT22;4394;51.208;8.904;2023-03-23T03:13:36;11.50;99.90
8715;DHT22;4394;51.208;8.904;2023-03-23T03:16:31;11.50;99.90
8715;DHT22;4394;51.208;8.904;2023-03-23T03:19:25;11.40;99.90
8715;DHT22;4394;51.208;8.904;2023-03-23T03:22:14;11.50;99.90
8715;DHT22;4394;51.208;8.904;2023-03-23T03:25:04;11.40;99.90
8715;DHT22;4394;51.208;8.904;2023-03-23T03:27:54;11.50;99.90
8715;DHT22;4394;51.208;8.904;2023-03-23T03:30:43;11.50;99.90
8715;DHT22;4394;51.208;8.904;2023-03-23T03:33:32;11.40;99.90
8715;DHT22;4394;51.208;8.904;2023-03-23T03:36:23;11.40;99.90
8715;DHT22;4394;51.208;8.904;2023-03-23T03:39:13;11.40;99.90
8715;DHT22;4394;51.208;8.904;2023-03-23T03:42:03;11.40;99.90
8715;DHT22;4394;51.208;8.904;2023-03-23T03:44:50;11.40;99.90
8715;DHT22;4394;51.208;8.904;2023-03-23T03:47:37;11.40;99.90
8715;DHT22;4394;51.208;8.904;2023-03-23T03:50:24;11.40;99.90
8715;DHT22;4394;51.208;8.904;2023-03-23T03:53:11;11.40;99.90
8715;DHT22;4394;51.208;8.904;2023-03-23T03:55:58;11.30;99.90
8715;DHT22;4394;51.208;8.904;2023-03-23T03:58:48;11.30;99.90
8715;DHT22;4394;51.208;8.904;2023-03-23T04:01:36;11.30;99.90
8715;DHT22;4394;51.208;8.904;2023-03-23T04:04:23;11.30;99.90
8715;DHT22;4394;51.208;8.904;2023-03-23T04:07:10;11.30;99.90
8715;DHT22;4394;51.208;8.904;2023-03-23T04:09:59;11.30;99.90
8715;DHT22;4394;51.208;8.904;2023-03-23T04:12:46;11.30;99.90
8715;DHT22;4394;51.208;8.904;2023-03-23T04:15:34;11.30;99.90
8715;DHT22;4394;51.208;8.904;2023-03-23T04:18:21;11.30;99.90
8715;DHT22;4394;51.208;8.904;2023-03-23T04:21:10;11.20;99.90
8715;DHT22;4394;51.208;8.904;2023-03-23T04:23:57;11.30;99.90
8715;DHT22;4394;51.208;8.904;2023-03-23T04:26:45;11.20;99.90
8715;DHT22;4394;51.208;8.904;2023-03-23T04:29:32;11.40;99.90
8715;DHT22;4394;51.208;8.904;2023-03-23T04:32:20;11.20;99.90
8715;DHT22;4394;51.208;8.904;2023-03-23T04:35:09;11.10;99.90
8715;DHT22;4394;51.208;8.904;2023-03-23T04:37:57;11.10;99.90
8715;DHT22;4394;51.208;8.904;2023-03-23T04:40:44;11.10;99.90
8715;DHT22;4394;51.208;8.904;2023-03-23T04:43:31;11.10;99.90
8715;DHT22;4394;51.208;8.904;2023-03-23T04:46:27;11.10;99.90
8715;DHT22;4394;51.208;8.904;2023-03-23T04:49:17;11.10;99.90
8715;DHT22;4394;51.208;8.904;2023-03-23T04:52:06;11.10;99.90
8715;DHT22;4394;51.208;8.904;2023-03-23T04:54:53;11.00;99.90
8715;DHT22;4394;51.208;8.904;2023-03-23T04:57:42;11.10;99.90
8715;DHT22;4394;51.208;8.904;2023-03-23T05:00:29;11.10;99.90
8715;DHT22;4394;51.208;8.904;2023-03-23T05:03:16;11.00;99.90
8715;DHT22;4394;51.208;8.904;2023-03-23T05:06:06;11.00;99.90
8715;DHT22;4394;51.208;8.904;2023-03-23T05:08:53;10.90;99.90
8715;DHT22;4394;51.208;8.904;2023-03-23T05:11:40;10.90;99.90
8715;DHT22;4394;51.208;8.904;2023-03-23T05:14:27;11.00;99.90
8715;DHT22;4394;51.208;8.904;2023-03-23T05:17:14;10.90;99.90
8715;DHT22;4394;51.208;8.904;2023-03-23T05:20:04;10.90;99.90
8715;DHT22;4394;51.208;8.904;2023-03-23T05:22:55;10.90;99.90
8715;DHT22;4394;51.208;8.904;2023-03-23T05:25:43;10.90;99.90
8715;DHT22;4394;51.208;8.904;2023-03-23T05:28:30;10.90;99.90
8715;DHT22;4394;51.208;8.904;2023-03-23T05:31:17;10.90;99.90
8715;DHT22;4394;51.208;8.904;2023-03-23T05:34:04;10.90;99.90
8715;DHT22;4394;51.208;8.904;2023-03-23T05:36:51;10.90;99.90
8715;DHT22;4394;51.208;8.904;2023-03-23T05:39:40;10.80;99.90
8715;DHT22;4394;51.208;8.904;2023-03-23T05:42:27;10.80;99.90
8715;DHT22;4394;51.208;8.904;2023-03-23T05:45:14;10.80;99.90
8715;DHT22;4394;51.208;8.904;2023-03-23T05:48:02;10.80;99.90
8715;DHT22;4394;51.208;8.904;2023-03-23T05:50:49;10.80;99.90
8715;DHT22;4394;51.208;8.904;2023-03-23T05:53:36;10.80;99.90
8715;DHT22;4394;51.208;8.904;2023-03-23T05:56:24;10.90;99.90
8715;DHT22;4394;51.208;8.904;2023-03-23T05:59:11;10.90;99.90
8715;DHT22;4394;51.208;8.904;2023-03-23T06:01:58;10.90;99.90
8715;DHT22;4394;51.208;8.904;2023-03-23T06:04:45;10.90;99.90
8715;DHT22;4394;51.208;8.904;2023-03-23T06:07:34;10.90;99.90
8715;DHT22;4394;51.208;8.904;2023-03-23T06:10:22;10.90;99.90
8715;DHT22;4394;51.208;8.904;2023-03-23T06:13:10;11.00;99.90
8715;DHT22;4394;51.208;8.904;2023-03-23T06:15:57;10.90;99.90
8715;DHT22;4394;51.208;8.904;2023-03-23T06:18:45;10.90;99.90
8715;DHT22;4394;51.208;8.904;2023-03-23T06:21:32;10.90;99.90
8715;DHT22;4394;51.208;8.904;2023-03-23T06:24:19;10.90;99.90
8715;DHT22;4394;51.208;8.904;2023-03-23T06:27:07;11.00;99.90
8715;DHT22;4394;51.208;8.904;2023-03-23T06:29:56;10.90;99.90
8715;DHT22;4394;51.208;8.904;2023-03-23T06:32:43;11.00;99.90
8715;DHT22;4394;51.208;8.904;2023-03-23T06:35:32;11.00;99.90
8715;DHT22;4394;51.208;8.904;2023-03-23T06:38:19;11.00;99.90
8715;DHT22;4394;51.208;8.904;2023-03-23T06:41:06;11.00;99.90
8715;DHT22;4394;51.208;8.904;2023-03-23T06:43:54;11.00;99.90
8715;DHT22;4394;51.208;8.904;2023-03-23T06:46:42;11.00;99.90
8715;DHT22;4394;51.208;8.904;2023-03-23T06:49:29;11.00;99.90
8715;DHT22;4394;51.208;8.904;2023-03-23T06:52:17;11.10;99.90
8715;DHT22;4394;51.208;8.904;2023-03-23T06:55:04;11.10;99.90
8715;DHT22;4394;51.208;8.904;2023-03-23T06:57:52;11.10;99.90
8715;DHT22;4394;51.208;8.904;2023-03-23T07:00:39;11.10;99.90
8715;DHT22;4394;51.208;8.904;2023-03-23T07:03:27;11.00;99.90
8715;DHT22;4394;51.208;8.904;2023-03-23T07:06:16;11.10;99.90
8715;DHT22;4394;51.208;8.904;2023-03-23T07:09:03;11.10;99.90
8715;DHT22;4394;51.208;8.904;2023-03-23T07:11:51;11.00;99.90
8715;DHT22;4394;51.208;8.904;2023-03-23T07:14:38;11.10;99.90
8715;DHT22;4394;51.208;8.904;2023-03-23T07:17:25;11.10;99.90
8715;DHT22;4394;51.208;8.904;2023-03-23T07:20:14;11.10;99.90
8715;DHT22;4394;51.208;8.904;2023-03-23T07:23:01;11.10;99.90
8715;DHT22;4394;51.208;8.904;2023-03-23T07:25:50;11.20;99.90
8715;DHT22;4394;51.208;8.904;2023-03-23T07:28:38;11.10;99.90
8715;DHT22;4394;51.208;8.904;2023-03-23T07:31:25;11.20;99.90
8715;DHT22;4394;51.208;8.904;2023-03-23T07:34:12;11.20;99.90
8715;DHT22;4394;51.208;8.904;2023-03-23T07:37:01;11.20;99.90
8715;DHT22;4394;51.208;8.904;2023-03-23T07:39:48;11.30;99.90
8715;DHT22;4394;51.208;8.904;2023-03-23T07:42:35;11.30;99.90
8715;DHT22;4394;51.208;8.904;2023-03-23T07:45:23;11.40;99.90
8715;DHT22;4394;51.208;8.904;2023-03-23T07:48:10;11.40;99.90
8715;DHT22;4394;51.208;8.904;2023-03-23T07:50:58;11.50;99.90
8715;DHT22;4394;51.208;8.904;2023-03-23T07:53:47;11.50;99.90
8715;DHT22;4394;51.208;8.904;2023-03-23T07:56:34;11.50;99.90
8715;DHT22;4394;51.208;8.904;2023-03-23T07:59:22;11.60;99.90
8715;DHT22;4394;51.208;8.904;2023-03-23T08:02:09;11.60;99.90
8715;DHT22;4394;51.208;8.904;2023-03-23T08:04:56;11.60;99.90
8715;DHT22;4394;51.208;8.904;2023-03-23T08:07:47;11.60;99.90
8715;DHT22;4394;51.208;8.904;2023-03-23T08:10:36;11.70;99.90
8715;DHT22;4394;51.208;8.904;2023-03-23T08:13:23;11.80;99.90
8715;DHT22;4394;51.208;8.904;2023-03-23T08:16:10;11.80;99.90
8715;DHT22;4394;51.208;8.904;2023-03-23T08:18:57;11.80;99.90
8715;DHT22;4394;51.208;8.904;2023-03-23T08:21:44;11.80;99.90
8715;DHT22;4394;51.208;8.904;2023-03-23T08:24:31;11.90;99.90
8715;DHT22;4394;51.208;8.904;2023-03-23T08:27:20;12.00;99.90
8715;DHT22;4394;51.208;8.904;2023-03-23T08:30:08;12.10;99.90
8715;DHT22;4394;51.208;8.904;2023-03-23T08:32:55;12.10;99.90
8715;DHT22;4394;51.208;8.904;2023-03-23T08:35:43;12.10;99.90
8715;DHT22;4394;51.208;8.904;2023-03-23T08:38:30;12.10;99.90
8715;DHT22;4394;51.208;8.904;2023-03-23T08:41:17;12.20;99.90
8715;DHT22;4394;51.208;8.904;2023-03-23T08:44:06;12.30;99.90
8715;DHT22;4394;51.208;8.904;2023-03-23T08:46:54;12.30;99.90
8715;DHT22;4394;51.208;8.904;2023-03-23T08:49:42;12.30;99.90
8715;DHT22;4394;51.208;8.904;2023-03-23T08:52:30;12.40;99.90
8715;DHT22;4394;51.208;8.904;2023-03-23T08:55:17;12.50;99.90
8715;DHT22;4394;51.208;8.904;2023-03-23T08:58:04;12.50;99.90
8715;DHT22;4394;51.208;8.904;2023-03-23T09:00:53;12.60;99.90
8715;DHT22;4394;51.208;8.904;2023-03-23T09:03:40;12.60;99.90
8715;DHT22;4394;51.208;8.904;2023-03-23T09:06:27;12.60;99.90
8715;DHT22;4394;51.208;8.904;2023-03-23T09:09:14;12.60;99.90
8715;DHT22;4394;51.208;8.904;2023-03-23T09:12:01;12.60;99.90
8715;DHT22;4394;51.208;8.904;2023-03-23T09:14:48;12.60;99.90
8715;DHT22;4394;51.208;8.904;2023-03-23T09:17:38;12.70;99.90
8715;DHT22;4394;51.208;8.904;2023-03-23T09:20:27;12.80;99.90
8715;DHT22;4394;51.208;8.904;2023-03-23T09:23:14;12.80;99.90
8715;DHT22;4394;51.208;8.904;2023-03-23T09:26:03;12.80;99.90
8715;DHT22;4394;51.208;8.904;2023-03-23T09:28:50;12.90;99.90
8715;DHT22;4394;51.208;8.904;2023-03-23T09:31:37;12.80;99.90
8715;DHT22;4394;51.208;8.904;2023-03-23T09:34:26;12.80;99.90
8715;DHT22;4394;51.208;8.904;2023-03-23T09:37:14;12.90;99.90
8715;DHT22;4394;51.208;8.904;2023-03-23T09:40:03;13.00;99.90
8715;DHT22;4394;51.208;8.904;2023-03-23T09:43:06;13.00;99.90
8715;DHT22;4394;51.208;8.904;2023-03-23T09:46:00;13.00;99.90
8715;DHT22;4394;51.208;8.904;2023-03-23T09:48:51;13.30;99.90
8715;DHT22;4394;51.208;8.904;2023-03-23T09:51:44;13.10;99.90
8715;DHT22;4394;51.208;8.904;2023-03-23T09:54:35;13.10;99.90
8715;DHT22;4394;51.208;8.904;2023-03-23T09:57:25;13.10;99.90
8715;DHT22;4394;51.208;8.904;2023-03-23T10:00:20;13.10;99.90
8715;DHT22;4394;51.208;8.904;2023-03-23T10:03:13;13.10;99.90
8715;DHT22;4394;51.208;8.904;2023-03-23T10:06:01;13.10;99.90
8715;DHT22;4394;51.208;8.904;2023-03-23T10:08:52;13.20;99.90
8715;DHT22;4394;51.208;8.904;2023-03-23T10:11:49;13.20;99.90
8715;DHT22;4394;51.208;8.904;2023-03-23T10:14:46;13.20;99.90
8715;DHT22;4394;51.208;8.904;2023-03-23T10:17:42;13.30;99.90
8715;DHT22;4394;51.208;8.904;2023-03-23T10:20:42;13.20;99.90
8715;DHT22;4394;51.208;8.904;2023-03-23T10:23:52;13.20;99.90
8715;DHT22;4394;51.208;8.904;2023-03-23T10:26:48;13.10;99.90
8715;DHT22;4394;51.208;8.904;2023-03-23T10:29:39;13.10;99.90
8715;DHT22;4394;51.208;8.904;2023-03-23T10:32:42;13.10;99.90
8715;DHT22;4394;51.208;8.904;2023-03-23T10:35:47;13.20;99.90
8715;DHT22;4394;51.208;8.904;2023-03-23T10:38:38;13.20;99.90
8715;DHT22;4394;51.208;8.904;2023-03-23T10:41:27;13.10;99.90
8715;DHT22;4394;51.208;8.904;2023-03-23T10:44:16;13.10;99.90
8715;DHT22;4394;51.208;8.904;2023-03-23T10:47:04;13.10;99.90
8715;DHT22;4394;51.208;8.904;2023-03-23T10:49:54;13.10;99.90
8715;DHT22;4394;51.208;8.904;2023-03-23T10:52:43;13.10;99.90
8715;DHT22;4394;51.208;8.904;2023-03-23T10:55:39;13.20;99.90
8715;DHT22;4394;51.208;8.904;2023-03-23T10:58:30;13.30;99.90
8715;DHT22;4394;51.208;8.904;2023-03-23T11:01:19;13.40;99.90
8715;DHT22;4394;51.208;8.904;2023-03-23T11:04:12;13.40;99.90
8715;DHT22;4394;51.208;8.904;2023-03-23T11:07:01;13.40;99.90
8715;DHT22;4394;51.208;8.904;2023-03-23T11:09:53;13.40;99.90
8715;DHT22;4394;51.208;8.904;2023-03-23T11:12:44;13.40;99.90
8715;DHT22;4394;51.208;8.904;2023-03-23T11:15:35;13.40;99.90
8715;DHT22;4394;51.208;8.904;2023-03-23T11:18:26;13.40;99.90
8715;DHT22;4394;51.208;8.904;2023-03-23T11:21:14;13.40;99.90
8715;DHT22;4394;51.208;8.904;2023-03-23T11:24:02;13.50;99.90
8715;DHT22;4394;51.208;8.904;2023-03-23T11:26:50;13.50;99.90
8715;DHT22;4394;51.208;8.904;2023-03-23T11:29:47;13.50;99.90
8715;DHT22;4394;51.208;8.904;2023-03-23T11:32:37;13.60;99.90
8715;DHT22;4394;51.208;8.904;2023-03-23T11:35:26;13.60;99.90
8715;DHT22;4394;51.208;8.904;2023-03-23T11:38:17;13.60;99.90
8715;DHT22;4394;51.208;8.904;2023-03-23T11:41:09;13.50;99.90
8715;DHT22;4394;51.208;8.904;2023-03-23T11:43:57;13.50;99.90
8715;DHT22;4394;51.208;8.904;2023-03-23T11:46:55;13.40;99.90
8715;DHT22;4394;51.208;8.904;2023-03-23T11:49:52;13.30;99.90
8715;DHT22;4394;51.208;8.904;2023-03-23T11:52:46;13.20;99.90
8715;DHT22;4394;51.208;8.904;2023-03-23T11:58:40;13.00;99.90
8715;DHT22;4394;51.208;8.904;2023-03-23T12:01:41;12.90;99.90
8715;DHT22;4394;51.208;8.904;2023-03-23T12:04:37;13.00;99.90
8715;DHT22;4394;51.208;8.904;2023-03-23T12:07:52;13.00;99.90
8715;DHT22;4394;51.208;8.904;2023-03-23T12:10:49;13.30;99.90
8715;DHT22;4394;51.208;8.904;2023-03-23T12:13:50;13.40;99.90
8715;DHT22;4394;51.208;8.904;2023-03-23T12:16:57;13.50;99.90
8715;DHT22;4394;51.208;8.904;2023-03-23T12:19:54;13.60;99.90
8715;DHT22;4394;51.208;8.904;2023-03-23T12:22:53;13.70;99.90
8715;DHT22;4394;51.208;8.904;2023-03-23T12:25:52;13.80;99.90
8715;DHT22;4394;51.208;8.904;2023-03-23T12:32:21;13.90;99.90
8715;DHT22;4394;51.208;8.904;2023-03-23T12:35:24;13.90;99.90
8715;DHT22;4394;51.208;8.904;2023-03-23T12:38:31;13.90;99.90
8715;DHT22;4394;51.208;8.904;2023-03-23T12:41:26;13.80;99.90
8715;DHT22;4394;51.208;8.904;2023-03-23T12:44:20;13.80;99.90
8715;DHT22;4394;51.208;8.904;2023-03-23T12:47:24;13.80;99.90
8715;DHT22;4394;51.208;8.904;2023-03-23T12:50:16;13.80;99.90
8715;DHT22;4394;51.208;8.904;2023-03-23T12:53:10;13.90;99.90
8715;DHT22;4394;51.208;8.904;2023-03-23T12:56:11;13.80;99.90
8715;DHT22;4394;51.208;8.904;2023-03-23T12:59:06;13.90;99.90
8715;DHT22;4394;51.208;8.904;2023-03-23T13:02:01;13.90;99.90
8715;DHT22;4394;51.208;8.904;2023-03-23T13:04:52;13.90;99.90
8715;DHT22;4394;51.208;8.904;2023-03-23T13:07:45;13.90;99.90
8715;DHT22;4394;51.208;8.904;2023-03-23T13:10:38;13.80;99.90
8715;DHT22;4394;51.208;8.904;2023-03-23T13:13:41;13.80;99.90
8715;DHT22;4394;51.208;8.904;2023-03-23T13:16:35;13.80;99.90
8715;DHT22;4394;51.208;8.904;2023-03-23T13:19:28;13.90;99.90
8715;DHT22;4394;51.208;8.904;2023-03-23T13:22:20;13.80;99.90
8715;DHT22;4394;51.208;8.904;2023-03-23T13:25:13;13.90;99.90
8715;DHT22;4394;51.208;8.904;2023-03-23T13:28:03;13.80;99.90
8715;DHT22;4394;51.208;8.904;2023-03-23T13:30:56;13.80;99.90
8715;DHT22;4394;51.208;8.904;2023-03-23T13:33:46;13.80;99.90
8715;DHT22;4394;51.208;8.904;2023-03-23T13:36:37;13.70;99.90
8715;DHT22;4394;51.208;8.904;2023-03-23T13:39:27;13.60;99.90
8715;DHT22;4394;51.208;8.904;2023-03-23T13:42:19;13.60;99.90
8715;DHT22;4394;51.208;8.904;2023-03-23T13:45:19;13.60;99.90
8715;DHT22;4394;51.208;8.904;2023-03-23T13:48:20;13.60;99.90
8715;DHT22;4394;51.208;8.904;2023-03-23T13:51:24;13.60;99.90
8715;DHT22;4394;51.208;8.904;2023-03-23T13:54:23;13.60;99.90
8715;DHT22;4394;51.208;8.904;2023-03-23T13:57:24;13.50;99.90
8715;DHT22;4394;51.208;8.904;2023-03-23T14:00:31;13.60;99.90
8715;DHT22;4394;51.208;8.904;2023-03-23T14:03:31;13.60;99.90
8715;DHT22;4394;51.208;8.904;2023-03-23T14:06:21;13.60;99.90
8715;DHT22;4394;51.208;8.904;2023-03-23T14:09:14;13.60;99.90
8715;DHT22;4394;51.208;8.904;2023-03-23T14:12:04;13.70;99.90
8715;DHT22;4394;51.208;8.904;2023-03-23T14:14:58;13.80;99.90
8715;DHT22;4394;51.208;8.904;2023-03-23T14:17:49;13.90;99.90
8715;DHT22;4394;51.208;8.904;2023-03-23T14:20:38;13.90;99.90
8715;DHT22;4394;51.208;8.904;2023-03-23T14:23:25;14.00;99.90
8715;DHT22;4394;51.208;8.904;2023-03-23T14:26:16;14.00;99.90
8715;DHT22;4394;51.208;8.904;2023-03-23T14:29:05;14.00;99.90
8715;DHT22;4394;51.208;8.904;2023-03-23T14:31:55;14.10;99.90
8715;DHT22;4394;51.208;8.904;2023-03-23T14:34:43;14.10;99.90
8715;DHT22;4394;51.208;8.904;2023-03-23T14:37:32;14.10;99.90
8715;DHT22;4394;51.208;8.904;2023-03-23T14:40:21;14.10;99.90
8715;DHT22;4394;51.208;8.904;2023-03-23T14:43:09;14.10;99.90
8715;DHT22;4394;51.208;8.904;2023-03-23T14:46:00;14.10;99.90
8715;DHT22;4394;51.208;8.904;2023-03-23T14:48:47;14.10;99.90
8715;DHT22;4394;51.208;8.904;2023-03-23T14:51:34;14.10;99.90
8715;DHT22;4394;51.208;8.904;2023-03-23T14:54:25;14.00;99.90
8715;DHT22;4394;51.208;8.904;2023-03-23T14:57:14;13.90;99.90
8715;DHT22;4394;51.208;8.904;2023-03-23T15:00:02;13.90;99.90
8715;DHT22;4394;51.208;8.904;2023-03-23T15:02:52;13.90;99.90
8715;DHT22;4394;51.208;8.904;2023-03-23T15:05:43;14.00;99.90
8715;DHT22;4394;51.208;8.904;2023-03-23T15:08:33;14.00;99.90
8715;DHT22;4394;51.208;8.904;2023-03-23T15:11:24;13.90;99.90
8715;DHT22;4394;51.208;8.904;2023-03-23T15:14:16;14.00;99.90
8715;DHT22;4394;51.208;8.904;2023-03-23T15:17:04;14.00;99.90
8715;DHT22;4394;51.208;8.904;2023-03-23T15:19:52;14.00;99.90
8715;DHT22;4394;51.208;8.904;2023-03-23T15:22:46;13.80;99.90
8715;DHT22;4394;51.208;8.904;2023-03-23T15:25:34;13.90;99.90
8715;DHT22;4394;51.208;8.904;2023-03-23T15:28:30;13.90;99.90
8715;DHT22;4394;51.208;8.904;2023-03-23T15:31:24;13.90;99.90
8715;DHT22;4394;51.208;8.904;2023-03-23T15:34:16;13.80;99.90
8715;DHT22;4394;51.208;8.904;2023-03-23T15:37:05;13.80;99.90
8715;DHT22;4394;51.208;8.904;2023-03-23T15:39:52;13.70;99.90
8715;DHT22;4394;51.208;8.904;2023-03-23T15:42:40;13.70;99.90
8715;DHT22;4394;51.208;8.904;2023-03-23T15:45:28;13.70;99.90
8715;DHT22;4394;51.208;8.904;2023-03-23T15:48:15;13.80;99.90
8715;DHT22;4394;51.208;8.904;2023-03-23T15:51:03;13.80;99.90
8715;DHT22;4394;51.208;8.904;2023-03-23T15:53:52;13.90;99.90
8715;DHT22;4394;51.208;8.904;2023-03-23T15:56:39;14.00;99.90
8715;DHT22;4394;51.208;8.904;2023-03-23T15:59:26;14.10;99.90
8715;DHT22;4394;51.208;8.904;2023-03-23T16:02:20;14.10;99.90
8715;DHT22;4394;51.208;8.904;2023-03-23T16:05:09;14.20;99.90
8715;DHT22;4394;51.208;8.904;2023-03-23T16:07:57;14.30;99.90
8715;DHT22;4394;51.208;8.904;2023-03-23T16:10:45;14.30;99.90
8715;DHT22;4394;51.208;8.904;2023-03-23T16:13:33;14.40;99.90
8715;DHT22;4394;51.208;8.904;2023-03-23T16:16:24;14.40;99.90
8715;DHT22;4394;51.208;8.904;2023-03-23T16:19:15;14.30;99.90
8715;DHT22;4394;51.208;8.904;2023-03-23T16:22:03;14.30;99.90
8715;DHT22;4394;51.208;8.904;2023-03-23T16:24:51;14.30;99.90
8715;DHT22;4394;51.208;8.904;2023-03-23T16:27:40;14.30;99.90
8715;DHT22;4394;51.208;8.904;2023-03-23T16:30:31;14.30;99.90
8715;DHT22;4394;51.208;8.904;2023-03-23T16:33:20;14.40;99.90
8715;DHT22;4394;51.208;8.904;2023-03-23T16:36:11;14.50;99.90
8715;DHT22;4394;51.208;8.904;2023-03-23T16:38:59;14.50;99.90
8715;DHT22;4394;51.208;8.904;2023-03-23T16:41:47;14.50;99.90
8715;DHT22;4394;51.208;8.904;2023-03-23T16:44:35;14.50;99.90
8715;DHT22;4394;51.208;8.904;2023-03-23T16:47:23;14.50;99.90
8715;DHT22;4394;51.208;8.904;2023-03-23T16:50:13;14.50;99.90
8715;DHT22;4394;51.208;8.904;2023-03-23T16:53:04;14.60;99.90
8715;DHT22;4394;51.208;8.904;2023-03-23T16:55:52;14.50;99.90
8715;DHT22;4394;51.208;8.904;2023-03-23T16:58:43;14.50;99.90
8715;DHT22;4394;51.208;8.904;2023-03-23T17:01:31;14.40;99.90
8715;DHT22;4394;51.208;8.904;2023-03-23T17:04:19;14.30;99.90
8715;DHT22;4394;51.208;8.904;2023-03-23T17:07:07;14.30;99.90
8715;DHT22;4394;51.208;8.904;2023-03-23T17:09:56;14.30;99.90
8715;DHT22;4394;51.208;8.904;2023-03-23T17:12:46;14.30;99.90
8715;DHT22;4394;51.208;8.904;2023-03-23T17:15:35;14.30;99.90
8715;DHT22;4394;51.208;8.904;2023-03-23T17:18:24;14.30;99.90
8715;DHT22;4394;51.208;8.904;2023-03-23T17:21:14;14.30;99.90
8715;DHT22;4394;51.208;8.904;2023-03-23T17:24:02;14.30;99.90
8715;DHT22;4394;51.208;8.904;2023-03-23T17:26:51;14.20;99.90
8715;DHT22;4394;51.208;8.904;2023-03-23T17:29:39;14.20;99.90
8715;DHT22;4394;51.208;8.904;2023-03-23T17:32:28;14.20;99.90
8715;DHT22;4394;51.208;8.904;2023-03-23T17:35:16;14.10;99.90
8715;DHT22;4394;51.208;8.904;2023-03-23T17:38:04;14.10;99.90
8715;DHT22;4394;51.208;8.904;2023-03-23T17:40:55;14.00;99.90
8715;DHT22;4394;51.208;8.904;2023-03-23T17:43:45;14.00;99.90
8715;DHT22;4394;51.208;8.904;2023-03-23T17:46:33;14.00;99.90
8715;DHT22;4394;51.208;8.904;2023-03-23T17:49:21;14.00;99.90
8715;DHT22;4394;51.208;8.904;2023-03-23T17:52:10;14.00;99.90
8715;DHT22;4394;51.208;8.904;2023-03-23T17:54:58;13.90;99.90
8715;DHT22;4394;51.208;8.904;2023-03-23T17:57:46;13.90;99.90
8715;DHT22;4394;51.208;8.904;2023-03-23T18:00:35;13.90;99.90
8715;DHT22;4394;51.208;8.904;2023-03-23T18:03:24;13.80;99.90
8715;DHT22;4394;51.208;8.904;2023-03-23T18:06:12;13.80;99.90
8715;DHT22;4394;51.208;8.904;2023-03-23T18:09:00;13.80;99.90
8715;DHT22;4394;51.208;8.904;2023-03-23T18:11:49;13.70;99.90
8715;DHT22;4394;51.208;8.904;2023-03-23T18:14:37;13.60;99.90
8715;DHT22;4394;51.208;8.904;2023-03-23T18:17:27;13.60;99.90
8715;DHT22;4394;51.208;8.904;2023-03-23T18:20:15;13.50;99.90
8715;DHT22;4394;51.208;8.904;2023-03-23T18:23:03;13.50;99.90
8715;DHT22;4394;51.208;8.904;2023-03-23T18:25:53;13.50;99.90
8715;DHT22;4394;51.208;8.904;2023-03-23T18:28:41;13.50;99.90
8715;DHT22;4394;51.208;8.904;2023-03-23T18:31:29;13.50;99.90
8715;DHT22;4394;51.208;8.904;2023-03-23T18:34:19;13.40;99.90
8715;DHT22;4394;51.208;8.904;2023-03-23T18:37:08;13.40;99.90